sensor_id;sensor_type;location;lat;lon;timestamp;P1;durP1;ratioP1;P2;durP2;ratioP2
6979;SDS011;3530;52.832;10.680;2023-03-05T00:01:25;2.78;;;2.20;;
6979;SDS011;3530;52.832;10.680;2023-03-05T00:04:13;3.42;;;2.22;;
6979;SDS011;3530;52.832;10.680;2023-03-05T00:06:59;2.00;;;1.90;;
6979;SDS011;3530;52.832;10.680;2023-03-05T00:09:45;2.97;;;2.00;;
6979;SDS011;3530;52.832;10.680;2023-03-05T00:12:30;2.38;;;2.30;;
6979;SDS011;3530;52.832;10.680;2023-03-05T00:15:16;2.90;;;2.20;;
6979;SDS011;3530;52.832;10.680;2023-03-05T00:18:02;2.13;;;2.03;;
6979;SDS011;3530;52.832;10.680;2023-03-05T00:20:47;7.55;;;2.22;;
6979;SDS011;3530;52.832;10.680;2023-03-05T00:23:33;4.18;;;2.20;;
6979;SDS011;3530;52.832;10.680;2023-03-05T00:26:19;8.07;;;2.13;;
6979;SDS011;3530;52.832;10.680;2023-03-05T00:29:06;5.95;;;2.50;;
6979;SDS011;3530;52.832;10.680;2023-03-05T00:31:52;5.72;;;2.63;;
6979;SDS011;3530;52.832;10.680;2023-03-05T00:34:38;2.42;;;2.20;;
6979;SDS011;3530;52.832;10.680;2023-03-05T00:37:24;4.72;;;2.33;;
6979;SDS011;3530;52.832;10.680;2023-03-05T00:40:09;4.05;;;2.13;;
6979;SDS011;3530;52.832;10.680;2023-03-05T00:42:56;3.70;;;2.45;;
6979;SDS011;3530;52.832;10.680;2023-03-05T00:45:41;3.55;;;2.30;;
6979;SDS011;3530;52.832;10.680;2023-03-05T00:48:27;6.60;;;2.47;;
6979;SDS011;3530;52.832;10.680;2023-03-05T00:51:12;2.33;;;2.22;;
6979;SDS011;3530;52.832;10.680;2023-03-05T00:53:58;2.10;;;2.00;;
6979;SDS011;3530;52.832;10.680;2023-03-05T00:56:44;4.20;;;2.25;;
6979;SDS011;3530;52.832;10.680;2023-03-05T00:59:29;9.00;;;2.53;;
6979;SDS011;3530;52.832;10.680;2023-03-05T01:02:15;3.63;;;2.70;;
6979;SDS011;3530;52.832;10.680;2023-03-05T01:05:01;2.67;;;2.47;;
6979;SDS011;3530;52.832;10.680;2023-03-05T01:07:46;3.88;;;2.45;;
6979;SDS011;3530;52.832;10.680;2023-03-05T01:10:32;8.07;;;2.28;;
6979;SDS011;3530;52.832;10.680;2023-03-05T01:13:18;3.50;;;2.08;;
6979;SDS011;3530;52.832;10.680;2023-03-05T01:16:04;2.00;;;1.90;;
6979;SDS011;3530;52.832;10.680;2023-03-05T01:18:50;2.25;;;2.15;;
6979;SDS011;3530;52.832;10.680;2023-03-05T01:21:36;3.17;;;2.28;;
6979;SDS011;3530;52.832;10.680;2023-03-05T01:24:21;3.20;;;1.80;;
6979;SDS011;3530;52.832;10.680;2023-03-05T01:27:07;1.80;;;1.80;;
6979;SDS011;3530;52.832;10.680;2023-03-05T01:29:53;2.85;;;2.05;;
6979;SDS011;3530;52.832;10.680;2023-03-05T01:32:39;3.20;;;2.28;;
6979;SDS011;3530;52.832;10.680;2023-03-05T01:35:25;1.80;;;1.70;;
6979;SDS011;3530;52.832;10.680;2023-03-05T01:38:10;2.70;;;2.60;;
6979;SDS011;3530;52.832;10.680;2023-03-05T01:40:56;6.25;;;1.85;;
6979;SDS011;3530;52.832;10.680;2023-03-05T01:43:42;1.85;;;1.83;;
6979;SDS011;3530;52.832;10.680;2023-03-05T01:49:22;2.20;;;2.10;;
6979;SDS011;3530;52.832;10.680;2023-03-05T01:52:16;2.50;;;2.30;;
6979;SDS011;3530;52.832;10.680;2023-03-05T01:55:07;2.97;;;2.10;;
6979;SDS011;3530;52.832;10.680;2023-03-05T01:57:56;3.33;;;2.08;;
6979;SDS011;3530;52.832;10.680;2023-03-05T02:00:45;2.30;;;2.20;;
6979;SDS011;3530;52.832;10.680;2023-03-05T02:03:32;2.58;;;2.47;;
6979;SDS011;3530;52.832;10.680;2023-03-05T02:06:18;2.65;;;2.50;;
6979;SDS011;3530;52.832;10.680;2023-03-05T02:09:04;1.90;;;1.90;;
6979;SDS011;3530;52.832;10.680;2023-03-05T02:11:50;2.95;;;2.03;;
6979;SDS011;3530;52.832;10.680;2023-03-05T02:14:36;2.58;;;2.38;;
6979;SDS011;3530;52.832;10.680;2023-03-05T02:17:22;2.35;;;2.10;;
6979;SDS011;3530;52.832;10.680;2023-03-05T02:20:15;4.75;;;3.20;;
6979;SDS011;3530;52.832;10.680;2023-03-05T02:23:05;2.85;;;2.40;;
6979;SDS011;3530;52.832;10.680;2023-03-05T02:25:51;2.30;;;2.20;;
6979;SDS011;3530;52.832;10.680;2023-03-05T02:28:38;2.30;;;2.13;;
6979;SDS011;3530;52.832;10.680;2023-03-05T02:31:27;2.42;;;2.22;;
6979;SDS011;3530;52.832;10.680;2023-03-05T02:34:12;2.60;;;2.10;;
6979;SDS011;3530;52.832;10.680;2023-03-05T02:36:58;3.03;;;2.20;;
6979;SDS011;3530;52.832;10.680;2023-03-05T02:39:44;2.83;;;2.00;;
6979;SDS011;3530;52.832;10.680;2023-03-05T02:42:29;2.65;;;2.50;;
6979;SDS011;3530;52.832;10.680;2023-03-05T02:45:17;4.13;;;2.42;;
6979;SDS011;3530;52.832;10.680;2023-03-05T02:48:03;2.17;;;2.03;;
6979;SDS011;3530;52.832;10.680;2023-03-05T02:50:49;2.30;;;2.10;;
6979;SDS011;3530;52.832;10.680;2023-03-05T02:53:35;3.70;;;3.38;;
6979;SDS011;3530;52.832;10.680;2023-03-05T02:56:21;4.88;;;3.15;;
6979;SDS011;3530;52.832;10.680;2023-03-05T02:59:07;2.83;;;2.67;;
6979;SDS011;3530;52.832;10.680;2023-03-05T03:01:52;5.88;;;2.40;;
6979;SDS011;3530;52.832;10.680;2023-03-05T03:04:38;3.95;;;2.60;;
6979;SDS011;3530;52.832;10.680;2023-03-05T03:07:24;3.70;;;3.40;;
6979;SDS011;3530;52.832;10.680;2023-03-05T03:10:10;3.40;;;3.10;;
6979;SDS011;3530;52.832;10.680;2023-03-05T03:12:56;5.25;;;3.13;;
6979;SDS011;3530;52.832;10.680;2023-03-05T03:15:41;3.10;;;2.90;;
6979;SDS011;3530;52.832;10.680;2023-03-05T03:18:27;7.35;;;3.40;;
6979;SDS011;3530;52.832;10.680;2023-03-05T03:21:16;4.07;;;3.78;;
6979;SDS011;3530;52.832;10.680;2023-03-05T03:24:03;3.55;;;3.30;;
6979;SDS011;3530;52.832;10.680;2023-03-05T03:26:49;3.83;;;3.50;;
6979;SDS011;3530;52.832;10.680;2023-03-05T03:29:35;6.10;;;3.55;;
6979;SDS011;3530;52.832;10.680;2023-03-05T03:32:21;3.67;;;3.17;;
6979;SDS011;3530;52.832;10.680;2023-03-05T03:35:06;4.05;;;3.50;;
6979;SDS011;3530;52.832;10.680;2023-03-05T03:37:53;5.40;;;3.88;;
6979;SDS011;3530;52.832;10.680;2023-03-05T03:40:39;4.28;;;3.40;;
6979;SDS011;3530;52.832;10.680;2023-03-05T03:43:26;3.22;;;3.03;;
6979;SDS011;3530;52.832;10.680;2023-03-05T03:46:11;4.93;;;3.58;;
6979;SDS011;3530;52.832;10.680;2023-03-05T03:48:57;6.60;;;4.53;;
6979;SDS011;3530;52.832;10.680;2023-03-05T03:51:42;4.60;;;4.15;;
6979;SDS011;3530;52.832;10.680;2023-03-05T03:54:28;4.32;;;3.25;;
6979;SDS011;3530;52.832;10.680;2023-03-05T03:57:14;9.27;;;4.05;;
6979;SDS011;3530;52.832;10.680;2023-03-05T03:59:59;4.60;;;4.20;;
6979;SDS011;3530;52.832;10.680;2023-03-05T04:02:45;6.47;;;3.75;;
6979;SDS011;3530;52.832;10.680;2023-03-05T04:05:31;4.57;;;4.13;;
6979;SDS011;3530;52.832;10.680;2023-03-05T04:08:16;3.58;;;3.30;;
6979;SDS011;3530;52.832;10.680;2023-03-05T04:11:02;5.22;;;3.67;;
6979;SDS011;3530;52.832;10.680;2023-03-05T04:13:48;4.32;;;3.83;;
6979;SDS011;3530;52.832;10.680;2023-03-05T04:16:33;6.50;;;3.60;;
6979;SDS011;3530;52.832;10.680;2023-03-05T04:19:19;5.30;;;4.13;;
6979;SDS011;3530;52.832;10.680;2023-03-05T04:22:05;4.82;;;3.95;;
6979;SDS011;3530;52.832;10.680;2023-03-05T04:24:52;4.90;;;3.90;;
6979;SDS011;3530;52.832;10.680;2023-03-05T04:27:38;6.60;;;4.38;;
6979;SDS011;3530;52.832;10.680;2023-03-05T04:30:24;3.85;;;3.53;;
6979;SDS011;3530;52.832;10.680;2023-03-05T04:33:10;5.45;;;3.20;;
6979;SDS011;3530;52.832;10.680;2023-03-05T04:35:55;4.78;;;3.58;;
6979;SDS011;3530;52.832;10.680;2023-03-05T04:38:41;3.20;;;3.00;;
6979;SDS011;3530;52.832;10.680;2023-03-05T04:41:27;3.30;;;3.10;;
6979;SDS011;3530;52.832;10.680;2023-03-05T04:44:12;3.30;;;3.00;;
6979;SDS011;3530;52.832;10.680;2023-03-05T04:46:58;3.70;;;3.40;;
6979;SDS011;3530;52.832;10.680;2023-03-05T04:49:44;2.90;;;2.67;;
6979;SDS011;3530;52.832;10.680;2023-03-05T04:52:29;2.90;;;2.67;;
6979;SDS011;3530;52.832;10.680;2023-03-05T04:55:15;2.50;;;2.40;;
6979;SDS011;3530;52.832;10.680;2023-03-05T04:58:02;2.67;;;2.58;;
6979;SDS011;3530;52.832;10.680;2023-03-05T05:00:47;3.40;;;2.58;;
6979;SDS011;3530;52.832;10.680;2023-03-05T05:03:33;2.80;;;2.70;;
6979;SDS011;3530;52.832;10.680;2023-03-05T05:06:19;2.85;;;2.60;;
6979;SDS011;3530;52.832;10.680;2023-03-05T05:09:04;5.03;;;2.70;;
6979;SDS011;3530;52.832;10.680;2023-03-05T05:11:50;5.70;;;2.53;;
6979;SDS011;3530;52.832;10.680;2023-03-05T05:14:36;2.38;;;2.22;;
6979;SDS011;3530;52.832;10.680;2023-03-05T05:17:21;3.20;;;2.50;;
6979;SDS011;3530;52.832;10.680;2023-03-05T05:20:09;3.22;;;2.63;;
6979;SDS011;3530;52.832;10.680;2023-03-05T05:22:56;3.30;;;2.88;;
6979;SDS011;3530;52.832;10.680;2023-03-05T05:25:42;2.80;;;2.70;;
6979;SDS011;3530;52.832;10.680;2023-03-05T05:28:28;3.75;;;2.28;;
6979;SDS011;3530;52.832;10.680;2023-03-05T05:31:14;2.95;;;2.20;;
6979;SDS011;3530;52.832;10.680;2023-03-05T05:34:00;2.72;;;2.35;;
6979;SDS011;3530;52.832;10.680;2023-03-05T05:36:46;2.45;;;2.25;;
6979;SDS011;3530;52.832;10.680;2023-03-05T05:39:31;4.50;;;2.30;;
6979;SDS011;3530;52.832;10.680;2023-03-05T05:42:18;4.15;;;2.70;;
6979;SDS011;3530;52.832;10.680;2023-03-05T05:45:05;2.60;;;2.50;;
6979;SDS011;3530;52.832;10.680;2023-03-05T05:47:51;2.95;;;2.75;;
6979;SDS011;3530;52.832;10.680;2023-03-05T05:50:37;2.92;;;2.70;;
6979;SDS011;3530;52.832;10.680;2023-03-05T05:53:23;5.72;;;3.20;;
6979;SDS011;3530;52.832;10.680;2023-03-05T05:56:10;5.88;;;2.95;;
6979;SDS011;3530;52.832;10.680;2023-03-05T05:58:56;3.45;;;2.80;;
6979;SDS011;3530;52.832;10.680;2023-03-05T06:01:41;4.63;;;3.25;;
6979;SDS011;3530;52.832;10.680;2023-03-05T06:04:27;3.90;;;2.97;;
6979;SDS011;3530;52.832;10.680;2023-03-05T06:07:13;2.83;;;2.72;;
6979;SDS011;3530;52.832;10.680;2023-03-05T06:09:58;2.55;;;2.45;;
6979;SDS011;3530;52.832;10.680;2023-03-05T06:12:44;3.22;;;3.00;;
6979;SDS011;3530;52.832;10.680;2023-03-05T06:15:30;2.80;;;2.67;;
6979;SDS011;3530;52.832;10.680;2023-03-05T06:18:16;2.55;;;2.45;;
6979;SDS011;3530;52.832;10.680;2023-03-05T06:21:04;2.65;;;2.55;;
6979;SDS011;3530;52.832;10.680;2023-03-05T06:23:51;3.45;;;3.15;;
6979;SDS011;3530;52.832;10.680;2023-03-05T06:26:37;3.15;;;2.95;;
6979;SDS011;3530;52.832;10.680;2023-03-05T06:29:22;5.07;;;3.00;;
6979;SDS011;3530;52.832;10.680;2023-03-05T06:32:08;3.60;;;3.22;;
6979;SDS011;3530;52.832;10.680;2023-03-05T06:34:54;3.20;;;3.03;;
6979;SDS011;3530;52.832;10.680;2023-03-05T06:37:39;3.15;;;2.90;;
6979;SDS011;3530;52.832;10.680;2023-03-05T06:40:25;3.03;;;2.80;;
6979;SDS011;3530;52.832;10.680;2023-03-05T06:43:11;6.88;;;3.55;;
6979;SDS011;3530;52.832;10.680;2023-03-05T06:46:12;3.13;;;2.92;;
6979;SDS011;3530;52.832;10.680;2023-03-05T06:49:00;4.43;;;3.05;;
6979;SDS011;3530;52.832;10.680;2023-03-05T06:51:46;3.38;;;3.17;;
6979;SDS011;3530;52.832;10.680;2023-03-05T06:54:32;4.75;;;3.55;;
6979;SDS011;3530;52.832;10.680;2023-03-05T06:57:17;3.78;;;3.40;;
6979;SDS011;3530;52.832;10.680;2023-03-05T07:00:03;2.83;;;2.70;;
6979;SDS011;3530;52.832;10.680;2023-03-05T07:02:54;4.10;;;3.75;;
6979;SDS011;3530;52.832;10.680;2023-03-05T07:05:40;2.95;;;2.80;;
6979;SDS011;3530;52.832;10.680;2023-03-05T07:08:26;3.78;;;3.42;;
6979;SDS011;3530;52.832;10.680;2023-03-05T07:11:13;3.55;;;3.28;;
6979;SDS011;3530;52.832;10.680;2023-03-05T07:14:00;3.92;;;3.63;;
6979;SDS011;3530;52.832;10.680;2023-03-05T07:16:45;3.20;;;3.03;;
6979;SDS011;3530;52.832;10.680;2023-03-05T07:19:31;4.55;;;4.15;;
6979;SDS011;3530;52.832;10.680;2023-03-05T07:22:17;3.80;;;3.50;;
6979;SDS011;3530;52.832;10.680;2023-03-05T07:25:02;6.43;;;5.03;;
6979;SDS011;3530;52.832;10.680;2023-03-05T07:27:48;4.53;;;3.75;;
6979;SDS011;3530;52.832;10.680;2023-03-05T07:30:34;4.15;;;3.85;;
6979;SDS011;3530;52.832;10.680;2023-03-05T07:33:20;5.25;;;4.45;;
6979;SDS011;3530;52.832;10.680;2023-03-05T07:36:09;4.93;;;3.88;;
6979;SDS011;3530;52.832;10.680;2023-03-05T07:38:55;7.03;;;4.28;;
6979;SDS011;3530;52.832;10.680;2023-03-05T07:41:41;4.15;;;3.85;;
6979;SDS011;3530;52.832;10.680;2023-03-05T07:44:26;3.92;;;3.67;;
6979;SDS011;3530;52.832;10.680;2023-03-05T07:47:12;4.43;;;3.85;;
6979;SDS011;3530;52.832;10.680;2023-03-05T07:49:58;5.28;;;3.65;;
6979;SDS011;3530;52.832;10.680;2023-03-05T07:52:43;3.00;;;2.78;;
6979;SDS011;3530;52.832;10.680;2023-03-05T07:55:29;5.35;;;4.50;;
6979;SDS011;3530;52.832;10.680;2023-03-05T07:58:14;4.18;;;3.72;;
6979;SDS011;3530;52.832;10.680;2023-03-05T08:01:00;4.15;;;3.78;;
6979;SDS011;3530;52.832;10.680;2023-03-05T08:03:46;3.65;;;3.35;;
6979;SDS011;3530;52.832;10.680;2023-03-05T08:06:32;3.67;;;3.35;;
6979;SDS011;3530;52.832;10.680;2023-03-05T08:09:17;3.25;;;3.05;;
6979;SDS011;3530;52.832;10.680;2023-03-05T08:12:03;3.78;;;3.53;;
6979;SDS011;3530;52.832;10.680;2023-03-05T08:14:49;3.38;;;3.10;;
6979;SDS011;3530;52.832;10.680;2023-03-05T08:17:35;3.72;;;3.40;;
6979;SDS011;3530;52.832;10.680;2023-03-05T08:20:21;4.40;;;3.58;;
6979;SDS011;3530;52.832;10.680;2023-03-05T08:23:07;5.68;;;3.33;;
6979;SDS011;3530;52.832;10.680;2023-03-05T08:25:52;3.10;;;2.88;;
6979;SDS011;3530;52.832;10.680;2023-03-05T08:28:38;3.42;;;3.13;;
6979;SDS011;3530;52.832;10.680;2023-03-05T08:31:24;4.05;;;3.63;;
6979;SDS011;3530;52.832;10.680;2023-03-05T08:34:11;4.65;;;3.13;;
6979;SDS011;3530;52.832;10.680;2023-03-05T08:36:56;3.60;;;3.30;;
6979;SDS011;3530;52.832;10.680;2023-03-05T08:39:42;7.68;;;6.80;;
6979;SDS011;3530;52.832;10.680;2023-03-05T08:42:28;3.42;;;3.08;;
6979;SDS011;3530;52.832;10.680;2023-03-05T08:45:13;3.20;;;2.90;;
6979;SDS011;3530;52.832;10.680;2023-03-05T08:47:59;3.53;;;3.22;;
6979;SDS011;3530;52.832;10.680;2023-03-05T08:50:44;3.03;;;2.80;;
6979;SDS011;3530;52.832;10.680;2023-03-05T08:53:30;2.47;;;2.40;;
6979;SDS011;3530;52.832;10.680;2023-03-05T08:56:16;2.40;;;2.30;;
6979;SDS011;3530;52.832;10.680;2023-03-05T08:59:02;2.40;;;2.30;;
6979;SDS011;3530;52.832;10.680;2023-03-05T09:01:48;2.88;;;2.53;;
6979;SDS011;3530;52.832;10.680;2023-03-05T09:04:34;2.72;;;2.63;;
6979;SDS011;3530;52.832;10.680;2023-03-05T09:07:19;2.83;;;2.63;;
6979;SDS011;3530;52.832;10.680;2023-03-05T09:10:05;2.10;;;2.00;;
6979;SDS011;3530;52.832;10.680;2023-03-05T09:12:51;2.25;;;2.20;;
6979;SDS011;3530;52.832;10.680;2023-03-05T09:15:37;2.53;;;2.30;;
6979;SDS011;3530;52.832;10.680;2023-03-05T09:18:26;2.45;;;2.35;;
6979;SDS011;3530;52.832;10.680;2023-03-05T09:21:14;2.97;;;2.80;;
6979;SDS011;3530;52.832;10.680;2023-03-05T09:24:01;3.35;;;2.42;;
6979;SDS011;3530;52.832;10.680;2023-03-05T09:26:47;2.67;;;2.58;;
6979;SDS011;3530;52.832;10.680;2023-03-05T09:29:33;2.20;;;2.13;;
6979;SDS011;3530;52.832;10.680;2023-03-05T09:32:18;3.05;;;2.60;;
6979;SDS011;3530;52.832;10.680;2023-03-05T09:35:04;2.50;;;2.30;;
6979;SDS011;3530;52.832;10.680;2023-03-05T09:37:50;1.80;;;1.80;;
6979;SDS011;3530;52.832;10.680;2023-03-05T09:40:41;2.70;;;2.45;;
6979;SDS011;3530;52.832;10.680;2023-03-05T09:43:53;2.22;;;2.00;;
6979;SDS011;3530;52.832;10.680;2023-03-05T09:47:02;2.05;;;1.98;;
6979;SDS011;3530;52.832;10.680;2023-03-05T09:49:57;2.05;;;1.95;;
6979;SDS011;3530;52.832;10.680;2023-03-05T09:52:46;1.90;;;1.80;;
6979;SDS011;3530;52.832;10.680;2023-03-05T09:55:38;2.10;;;2.00;;
6979;SDS011;3530;52.832;10.680;2023-03-05T09:58:39;3.55;;;2.60;;
6979;SDS011;3530;52.832;10.680;2023-03-05T10:01:35;3.65;;;3.35;;
6979;SDS011;3530;52.832;10.680;2023-03-05T10:04:37;2.50;;;2.42;;
6979;SDS011;3530;52.832;10.680;2023-03-05T10:07:33;6.80;;;2.80;;
6979;SDS011;3530;52.832;10.680;2023-03-05T10:10:43;2.83;;;2.65;;
6979;SDS011;3530;52.832;10.680;2023-03-05T10:13:32;3.08;;;2.40;;
6979;SDS011;3530;52.832;10.680;2023-03-05T10:16:27;3.15;;;2.63;;
6979;SDS011;3530;52.832;10.680;2023-03-05T10:23:02;2.88;;;2.60;;
6979;SDS011;3530;52.832;10.680;2023-03-05T10:31:55;2.55;;;2.10;;
6979;SDS011;3530;52.832;10.680;2023-03-05T10:35:18;2.40;;;2.30;;
6979;SDS011;3530;52.832;10.680;2023-03-05T10:41:12;2.42;;;2.33;;
6979;SDS011;3530;52.832;10.680;2023-03-05T10:44:08;2.53;;;2.40;;
6979;SDS011;3530;52.832;10.680;2023-03-05T10:46:59;3.92;;;2.05;;
6979;SDS011;3530;52.832;10.680;2023-03-05T10:49:50;2.53;;;2.33;;
6979;SDS011;3530;52.832;10.680;2023-03-05T10:52:39;4.97;;;2.70;;
6979;SDS011;3530;52.832;10.680;2023-03-05T10:55:25;5.95;;;2.90;;
6979;SDS011;3530;52.832;10.680;2023-03-05T10:58:12;1.98;;;1.98;;
6979;SDS011;3530;52.832;10.680;2023-03-05T11:01:00;2.05;;;1.95;;
6979;SDS011;3530;52.832;10.680;2023-03-05T11:03:52;7.07;;;2.70;;
6979;SDS011;3530;52.832;10.680;2023-03-05T11:06:40;2.70;;;2.50;;
6979;SDS011;3530;52.832;10.680;2023-03-05T11:09:30;1.90;;;1.90;;
6979;SDS011;3530;52.832;10.680;2023-03-05T11:12:19;2.10;;;2.00;;
6979;SDS011;3530;52.832;10.680;2023-03-05T11:18:05;2.85;;;2.47;;
6979;SDS011;3530;52.832;10.680;2023-03-05T11:21:11;3.45;;;3.15;;
6979;SDS011;3530;52.832;10.680;2023-03-05T11:26:54;2.15;;;2.05;;
6979;SDS011;3530;52.832;10.680;2023-03-05T11:29:45;2.55;;;2.38;;
6979;SDS011;3530;52.832;10.680;2023-03-05T11:32:32;2.30;;;2.15;;
6979;SDS011;3530;52.832;10.680;2023-03-05T11:35:25;1.60;;;1.60;;
6979;SDS011;3530;52.832;10.680;2023-03-05T11:38:22;2.60;;;2.20;;
6979;SDS011;3530;52.832;10.680;2023-03-05T11:41:09;1.70;;;1.70;;
6979;SDS011;3530;52.832;10.680;2023-03-05T11:43:54;2.08;;;1.98;;
6979;SDS011;3530;52.832;10.680;2023-03-05T11:46:49;2.10;;;1.90;;
6979;SDS011;3530;52.832;10.680;2023-03-05T11:49:38;1.80;;;1.80;;
6979;SDS011;3530;52.832;10.680;2023-03-05T11:52:27;1.73;;;1.73;;
6979;SDS011;3530;52.832;10.680;2023-03-05T11:55:24;3.60;;;2.00;;
6979;SDS011;3530;52.832;10.680;2023-03-05T12:01:29;2.20;;;2.10;;
6979;SDS011;3530;52.832;10.680;2023-03-05T12:04:20;2.10;;;2.00;;
6979;SDS011;3530;52.832;10.680;2023-03-05T12:07:06;4.82;;;2.15;;
6979;SDS011;3530;52.832;10.680;2023-03-05T12:09:56;2.78;;;2.63;;
6979;SDS011;3530;52.832;10.680;2023-03-05T12:12:45;2.50;;;2.38;;
6979;SDS011;3530;52.832;10.680;2023-03-05T12:16:01;1.98;;;1.98;;
6979;SDS011;3530;52.832;10.680;2023-03-05T12:22:04;1.73;;;1.73;;
6979;SDS011;3530;52.832;10.680;2023-03-05T12:28:13;1.98;;;1.88;;
6979;SDS011;3530;52.832;10.680;2023-03-05T12:31:04;1.70;;;1.70;;
6979;SDS011;3530;52.832;10.680;2023-03-05T12:33:52;4.32;;;2.75;;
6979;SDS011;3530;52.832;10.680;2023-03-05T12:36:38;2.53;;;2.42;;
6979;SDS011;3530;52.832;10.680;2023-03-05T12:50:46;2.58;;;2.42;;
6979;SDS011;3530;52.832;10.680;2023-03-05T12:53:32;5.80;;;2.08;;
6979;SDS011;3530;52.832;10.680;2023-03-05T12:56:18;2.40;;;2.30;;
6979;SDS011;3530;52.832;10.680;2023-03-05T12:59:09;3.72;;;3.42;;
6979;SDS011;3530;52.832;10.680;2023-03-05T13:01:59;2.17;;;2.08;;
6979;SDS011;3530;52.832;10.680;2023-03-05T13:04:48;2.30;;;2.20;;
6979;SDS011;3530;52.832;10.680;2023-03-05T13:07:36;2.47;;;2.35;;
6979;SDS011;3530;52.832;10.680;2023-03-05T13:10:23;2.38;;;2.28;;
6979;SDS011;3530;52.832;10.680;2023-03-05T13:13:13;1.95;;;1.95;;
6979;SDS011;3530;52.832;10.680;2023-03-05T13:16:00;5.18;;;2.15;;
6979;SDS011;3530;52.832;10.680;2023-03-05T13:18:46;1.85;;;1.75;;
6979;SDS011;3530;52.832;10.680;2023-03-05T13:21:33;1.98;;;1.88;;
6979;SDS011;3530;52.832;10.680;2023-03-05T13:24:19;2.00;;;1.90;;
6979;SDS011;3530;52.832;10.680;2023-03-05T13:27:18;2.17;;;2.08;;
6979;SDS011;3530;52.832;10.680;2023-03-05T13:30:05;4.05;;;2.15;;
6979;SDS011;3530;52.832;10.680;2023-03-05T13:32:59;2.63;;;2.10;;
6979;SDS011;3530;52.832;10.680;2023-03-05T13:35:49;2.85;;;2.65;;
6979;SDS011;3530;52.832;10.680;2023-03-05T13:38:37;2.17;;;2.15;;
6979;SDS011;3530;52.832;10.680;2023-03-05T13:41:25;2.50;;;2.38;;
6979;SDS011;3530;52.832;10.680;2023-03-05T13:44:16;3.30;;;3.05;;
6979;SDS011;3530;52.832;10.680;2023-03-05T13:47:06;3.08;;;2.90;;
6979;SDS011;3530;52.832;10.680;2023-03-05T13:49:59;2.08;;;2.05;;
6979;SDS011;3530;52.832;10.680;2023-03-05T13:52:46;2.10;;;2.00;;
6979;SDS011;3530;52.832;10.680;2023-03-05T13:55:31;2.58;;;2.38;;
6979;SDS011;3530;52.832;10.680;2023-03-05T14:01:41;1.73;;;1.65;;
6979;SDS011;3530;52.832;10.680;2023-03-05T14:04:29;1.90;;;1.80;;
6979;SDS011;3530;52.832;10.680;2023-03-05T14:07:27;1.80;;;1.70;;
6979;SDS011;3530;52.832;10.680;2023-03-05T14:10:35;2.00;;;1.90;;
6979;SDS011;3530;52.832;10.680;2023-03-05T14:13:23;2.72;;;2.45;;
6979;SDS011;3530;52.832;10.680;2023-03-05T14:16:10;2.45;;;1.90;;
6979;SDS011;3530;52.832;10.680;2023-03-05T14:18:59;2.28;;;2.08;;
6979;SDS011;3530;52.832;10.680;2023-03-05T14:21:46;2.30;;;2.20;;
6979;SDS011;3530;52.832;10.680;2023-03-05T14:24:33;3.22;;;3.03;;
6979;SDS011;3530;52.832;10.680;2023-03-05T14:27:19;3.25;;;2.13;;
6979;SDS011;3530;52.832;10.680;2023-03-05T14:30:13;1.75;;;1.75;;
6979;SDS011;3530;52.832;10.680;2023-03-05T14:33:01;1.73;;;1.73;;
6979;SDS011;3530;52.832;10.680;2023-03-05T14:35:47;2.40;;;2.20;;
6979;SDS011;3530;52.832;10.680;2023-03-05T14:38:34;6.60;;;5.25;;
6979;SDS011;3530;52.832;10.680;2023-03-05T14:41:40;2.08;;;1.98;;
6979;SDS011;3530;52.832;10.680;2023-03-05T14:44:25;2.70;;;2.30;;
6979;SDS011;3530;52.832;10.680;2023-03-05T14:47:11;2.55;;;2.35;;
6979;SDS011;3530;52.832;10.680;2023-03-05T14:49:57;4.65;;;2.60;;
6979;SDS011;3530;52.832;10.680;2023-03-05T14:52:43;2.70;;;2.50;;
6979;SDS011;3530;52.832;10.680;2023-03-05T14:55:31;2.40;;;2.30;;
6979;SDS011;3530;52.832;10.680;2023-03-05T14:58:17;3.40;;;2.42;;
6979;SDS011;3530;52.832;10.680;2023-03-05T15:01:06;7.47;;;2.50;;
6979;SDS011;3530;52.832;10.680;2023-03-05T15:03:51;4.43;;;2.45;;
6979;SDS011;3530;52.832;10.680;2023-03-05T15:06:38;2.33;;;2.22;;
6979;SDS011;3530;52.832;10.680;2023-03-05T15:09:24;3.40;;;3.10;;
6979;SDS011;3530;52.832;10.680;2023-03-05T15:12:12;2.53;;;2.33;;
6979;SDS011;3530;52.832;10.680;2023-03-05T15:14:58;4.43;;;2.35;;
6979;SDS011;3530;52.832;10.680;2023-03-05T15:17:44;2.28;;;2.17;;
6979;SDS011;3530;52.832;10.680;2023-03-05T15:20:32;3.28;;;3.08;;
6979;SDS011;3530;52.832;10.680;2023-03-05T15:23:18;2.72;;;2.15;;
6979;SDS011;3530;52.832;10.680;2023-03-05T15:26:04;2.47;;;2.38;;
6979;SDS011;3530;52.832;10.680;2023-03-05T15:28:51;1.90;;;1.90;;
6979;SDS011;3530;52.832;10.680;2023-03-05T15:31:37;2.17;;;1.90;;
6979;SDS011;3530;52.832;10.680;2023-03-05T15:34:24;2.42;;;2.33;;
6979;SDS011;3530;52.832;10.680;2023-03-05T15:37:10;2.28;;;2.00;;
6979;SDS011;3530;52.832;10.680;2023-03-05T15:39:56;2.67;;;2.50;;
6979;SDS011;3530;52.832;10.680;2023-03-05T15:42:42;2.10;;;2.00;;
6979;SDS011;3530;52.832;10.680;2023-03-05T15:45:27;2.70;;;2.45;;
6979;SDS011;3530;52.832;10.680;2023-03-05T15:48:15;2.17;;;2.08;;
6979;SDS011;3530;52.832;10.680;2023-03-05T15:51:01;2.47;;;2.33;;
6979;SDS011;3530;52.832;10.680;2023-03-05T15:53:50;1.88;;;1.88;;
6979;SDS011;3530;52.832;10.680;2023-03-05T15:56:36;2.22;;;2.15;;
6979;SDS011;3530;52.832;10.680;2023-03-05T15:59:22;2.60;;;2.40;;
6979;SDS011;3530;52.832;10.680;2023-03-05T16:02:07;7.28;;;3.72;;
6979;SDS011;3530;52.832;10.680;2023-03-05T16:04:53;6.20;;;3.50;;
6979;SDS011;3530;52.832;10.680;2023-03-05T16:07:39;10.02;;;5.90;;
6979;SDS011;3530;52.832;10.680;2023-03-05T16:10:27;5.63;;;4.05;;
6979;SDS011;3530;52.832;10.680;2023-03-05T16:13:13;4.55;;;3.35;;
6979;SDS011;3530;52.832;10.680;2023-03-05T16:16:01;7.45;;;3.60;;
6979;SDS011;3530;52.832;10.680;2023-03-05T16:18:48;6.38;;;3.70;;
6979;SDS011;3530;52.832;10.680;2023-03-05T16:21:34;5.60;;;3.30;;
6979;SDS011;3530;52.832;10.680;2023-03-05T16:24:20;3.70;;;3.40;;
6979;SDS011;3530;52.832;10.680;2023-03-05T16:27:05;5.55;;;3.83;;
6979;SDS011;3530;52.832;10.680;2023-03-05T16:29:51;6.15;;;3.83;;
6979;SDS011;3530;52.832;10.680;2023-03-05T16:32:37;3.65;;;3.17;;
6979;SDS011;3530;52.832;10.680;2023-03-05T16:35:23;3.88;;;3.45;;
6979;SDS011;3530;52.832;10.680;2023-03-05T16:38:08;5.70;;;2.95;;
6979;SDS011;3530;52.832;10.680;2023-03-05T16:40:54;2.95;;;2.75;;
6979;SDS011;3530;52.832;10.680;2023-03-05T16:43:39;8.32;;;5.43;;
6979;SDS011;3530;52.832;10.680;2023-03-05T16:46:26;4.05;;;3.20;;
6979;SDS011;3530;52.832;10.680;2023-03-05T16:49:13;3.40;;;3.10;;
6979;SDS011;3530;52.832;10.680;2023-03-05T16:51:59;2.03;;;2.03;;
6979;SDS011;3530;52.832;10.680;2023-03-05T16:54:45;3.35;;;3.15;;
6979;SDS011;3530;52.832;10.680;2023-03-05T16:57:31;5.43;;;3.65;;
6979;SDS011;3530;52.832;10.680;2023-03-05T17:00:17;3.50;;;3.20;;
6979;SDS011;3530;52.832;10.680;2023-03-05T17:03:03;3.28;;;3.10;;
6979;SDS011;3530;52.832;10.680;2023-03-05T17:05:48;2.78;;;2.67;;
6979;SDS011;3530;52.832;10.680;2023-03-05T17:08:34;3.70;;;3.40;;
6979;SDS011;3530;52.832;10.680;2023-03-05T17:11:20;3.83;;;3.53;;
6979;SDS011;3530;52.832;10.680;2023-03-05T17:14:05;4.70;;;3.30;;
6979;SDS011;3530;52.832;10.680;2023-03-05T17:16:51;2.83;;;2.63;;
6979;SDS011;3530;52.832;10.680;2023-03-05T17:19:37;2.83;;;2.60;;
6979;SDS011;3530;52.832;10.680;2023-03-05T17:22:23;2.88;;;2.63;;
6979;SDS011;3530;52.832;10.680;2023-03-05T17:25:09;3.00;;;2.75;;
6979;SDS011;3530;52.832;10.680;2023-03-05T17:27:55;2.85;;;2.65;;
6979;SDS011;3530;52.832;10.680;2023-03-05T17:30:40;3.20;;;2.85;;
6979;SDS011;3530;52.832;10.680;2023-03-05T17:33:26;2.80;;;2.60;;
6979;SDS011;3530;52.832;10.680;2023-03-05T17:36:17;2.42;;;2.33;;
6979;SDS011;3530;52.832;10.680;2023-03-05T17:39:03;4.15;;;3.25;;
6979;SDS011;3530;52.832;10.680;2023-03-05T17:41:49;2.90;;;2.80;;
6979;SDS011;3530;52.832;10.680;2023-03-05T17:44:34;7.68;;;3.50;;
6979;SDS011;3530;52.832;10.680;2023-03-05T17:47:20;3.05;;;2.95;;
6979;SDS011;3530;52.832;10.680;2023-03-05T17:50:08;3.13;;;2.92;;